sensor_id;sensor_type;location;lat;lon;timestamp;P1;durP1;ratioP1;P2;durP2;ratioP2
13408;SDS011;6775;49.574;11.170;2023-07-22T00:01:41;2.50;;;2.30;;
13408;SDS011;6775;49.574;11.170;2023-07-22T00:04:09;3.33;;;2.60;;
13408;SDS011;6775;49.574;11.170;2023-07-22T00:06:38;3.13;;;2.83;;
13408;SDS011;6775;49.574;11.170;2023-07-22T00:09:07;4.20;;;3.00;;
13408;SDS011;6775;49.574;11.170;2023-07-22T00:11:36;3.57;;;3.07;;
13408;SDS011;6775;49.574;11.170;2023-07-22T00:14:04;3.17;;;2.80;;
13408;SDS011;6775;49.574;11.170;2023-07-22T00:16:32;3.83;;;2.47;;
13408;SDS011;6775;49.574;11.170;2023-07-22T00:19:00;4.20;;;3.30;;
13408;SDS011;6775;49.574;11.170;2023-07-22T00:21:28;4.67;;;2.87;;
13408;SDS011;6775;49.574;11.170;2023-07-22T00:23:56;3.23;;;2.80;;
13408;SDS011;6775;49.574;11.170;2023-07-22T00:26:26;5.80;;;3.53;;
13408;SDS011;6775;49.574;11.170;2023-07-22T00:28:55;3.07;;;2.70;;
13408;SDS011;6775;49.574;11.170;2023-07-22T00:31:23;3.27;;;2.97;;
13408;SDS011;6775;49.574;11.170;2023-07-22T00:33:51;4.13;;;2.70;;
13408;SDS011;6775;49.574;11.170;2023-07-22T00:36:19;2.80;;;2.50;;
13408;SDS011;6775;49.574;11.170;2023-07-22T00:38:47;3.23;;;2.93;;
13408;SDS011;6775;49.574;11.170;2023-07-22T00:41:15;3.20;;;2.70;;
13408;SDS011;6775;49.574;11.170;2023-07-22T00:43:45;3.03;;;2.43;;
13408;SDS011;6775;49.574;11.170;2023-07-22T00:46:13;5.47;;;3.80;;
13408;SDS011;6775;49.574;11.170;2023-07-22T00:48:41;3.40;;;3.07;;
13408;SDS011;6775;49.574;11.170;2023-07-22T00:51:10;3.53;;;3.10;;
13408;SDS011;6775;49.574;11.170;2023-07-22T00:53:38;4.10;;;2.80;;
13408;SDS011;6775;49.574;11.170;2023-07-22T00:56:06;5.20;;;2.97;;
13408;SDS011;6775;49.574;11.170;2023-07-22T00:58:34;4.27;;;3.80;;
13408;SDS011;6775;49.574;11.170;2023-07-22T01:01:03;4.43;;;3.57;;
13408;SDS011;6775;49.574;11.170;2023-07-22T01:03:31;5.53;;;3.13;;
13408;SDS011;6775;49.574;11.170;2023-07-22T01:05:59;4.73;;;3.43;;
13408;SDS011;6775;49.574;11.170;2023-07-22T01:08:28;5.57;;;3.17;;
13408;SDS011;6775;49.574;11.170;2023-07-22T01:10:56;4.30;;;3.23;;
13408;SDS011;6775;49.574;11.170;2023-07-22T01:13:25;4.43;;;3.40;;
13408;SDS011;6775;49.574;11.170;2023-07-22T01:15:53;3.07;;;2.73;;
13408;SDS011;6775;49.574;11.170;2023-07-22T01:18:23;3.57;;;3.27;;
13408;SDS011;6775;49.574;11.170;2023-07-22T01:20:51;2.60;;;2.40;;
13408;SDS011;6775;49.574;11.170;2023-07-22T01:23:20;2.77;;;2.50;;
13408;SDS011;6775;49.574;11.170;2023-07-22T01:25:49;3.67;;;2.70;;
13408;SDS011;6775;49.574;11.170;2023-07-22T01:28:18;3.33;;;2.80;;
13408;SDS011;6775;49.574;11.170;2023-07-22T01:30:49;3.47;;;3.00;;
13408;SDS011;6775;49.574;11.170;2023-07-22T01:33:17;3.80;;;3.10;;
13408;SDS011;6775;49.574;11.170;2023-07-22T01:35:45;3.80;;;2.97;;
13408;SDS011;6775;49.574;11.170;2023-07-22T01:38:13;3.77;;;2.60;;
13408;SDS011;6775;49.574;11.170;2023-07-22T01:40:42;3.50;;;2.70;;
13408;SDS011;6775;49.574;11.170;2023-07-22T01:43:10;3.20;;;2.90;;
13408;SDS011;6775;49.574;11.170;2023-07-22T01:45:38;3.73;;;3.10;;
13408;SDS011;6775;49.574;11.170;2023-07-22T01:48:07;3.17;;;2.87;;
13408;SDS011;6775;49.574;11.170;2023-07-22T01:50:35;2.80;;;2.60;;
13408;SDS011;6775;49.574;11.170;2023-07-22T01:53:03;4.17;;;3.10;;
13408;SDS011;6775;49.574;11.170;2023-07-22T01:55:31;3.83;;;2.77;;
13408;SDS011;6775;49.574;11.170;2023-07-22T01:58:01;4.23;;;2.97;;
13408;SDS011;6775;49.574;11.170;2023-07-22T02:00:29;3.27;;;2.80;;
13408;SDS011;6775;49.574;11.170;2023-07-22T02:02:57;3.77;;;2.83;;
13408;SDS011;6775;49.574;11.170;2023-07-22T02:05:25;3.40;;;2.70;;
13408;SDS011;6775;49.574;11.170;2023-07-22T02:07:55;4.07;;;3.20;;
13408;SDS011;6775;49.574;11.170;2023-07-22T02:10:23;5.00;;;2.97;;
13408;SDS011;6775;49.574;11.170;2023-07-22T02:12:51;4.53;;;3.00;;
13408;SDS011;6775;49.574;11.170;2023-07-22T02:15:21;2.93;;;2.70;;
13408;SDS011;6775;49.574;11.170;2023-07-22T02:17:50;4.27;;;3.33;;
13408;SDS011;6775;49.574;11.170;2023-07-22T02:20:18;3.20;;;2.90;;
13408;SDS011;6775;49.574;11.170;2023-07-22T02:22:46;3.40;;;3.00;;
13408;SDS011;6775;49.574;11.170;2023-07-22T02:25:14;3.47;;;3.17;;
13408;SDS011;6775;49.574;11.170;2023-07-22T02:27:42;4.40;;;2.87;;
13408;SDS011;6775;49.574;11.170;2023-07-22T02:30:10;4.07;;;3.10;;
13408;SDS011;6775;49.574;11.170;2023-07-22T02:32:40;2.97;;;2.67;;
13408;SDS011;6775;49.574;11.170;2023-07-22T02:35:09;3.40;;;2.53;;
13408;SDS011;6775;49.574;11.170;2023-07-22T02:37:37;4.37;;;3.13;;
13408;SDS011;6775;49.574;11.170;2023-07-22T02:40:06;3.47;;;3.10;;
13408;SDS011;6775;49.574;11.170;2023-07-22T02:42:36;3.20;;;2.60;;
13408;SDS011;6775;49.574;11.170;2023-07-22T02:45:05;4.00;;;3.20;;
13408;SDS011;6775;49.574;11.170;2023-07-22T02:47:35;4.70;;;3.27;;
13408;SDS011;6775;49.574;11.170;2023-07-22T02:50:05;3.07;;;2.77;;
13408;SDS011;6775;49.574;11.170;2023-07-22T02:52:33;3.50;;;2.77;;
13408;SDS011;6775;49.574;11.170;2023-07-22T02:55:06;4.23;;;3.10;;
13408;SDS011;6775;49.574;11.170;2023-07-22T02:57:37;3.50;;;3.20;;
13408;SDS011;6775;49.574;11.170;2023-07-22T03:00:06;6.13;;;2.90;;
13408;SDS011;6775;49.574;11.170;2023-07-22T03:02:37;4.23;;;2.77;;
13408;SDS011;6775;49.574;11.170;2023-07-22T03:05:08;3.77;;;3.17;;
13408;SDS011;6775;49.574;11.170;2023-07-22T03:07:37;3.60;;;2.83;;
13408;SDS011;6775;49.574;11.170;2023-07-22T03:10:06;3.80;;;3.10;;
13408;SDS011;6775;49.574;11.170;2023-07-22T03:12:35;3.53;;;2.40;;
13408;SDS011;6775;49.574;11.170;2023-07-22T03:15:04;3.70;;;2.60;;
13408;SDS011;6775;49.574;11.170;2023-07-22T03:17:35;2.97;;;2.67;;
13408;SDS011;6775;49.574;11.170;2023-07-22T03:20:04;3.73;;;3.13;;
13408;SDS011;6775;49.574;11.170;2023-07-22T03:22:40;2.90;;;2.70;;
13408;SDS011;6775;49.574;11.170;2023-07-22T03:25:08;5.33;;;3.30;;
13408;SDS011;6775;49.574;11.170;2023-07-22T03:27:37;4.47;;;2.87;;
13408;SDS011;6775;49.574;11.170;2023-07-22T03:30:06;3.33;;;3.03;;
13408;SDS011;6775;49.574;11.170;2023-07-22T03:32:36;3.13;;;2.83;;
13408;SDS011;6775;49.574;11.170;2023-07-22T03:35:05;3.80;;;3.27;;
13408;SDS011;6775;49.574;11.170;2023-07-22T03:37:38;3.33;;;2.93;;
13408;SDS011;6775;49.574;11.170;2023-07-22T03:40:07;3.50;;;3.00;;
13408;SDS011;6775;49.574;11.170;2023-07-22T03:42:43;3.37;;;2.77;;
13408;SDS011;6775;49.574;11.170;2023-07-22T03:45:11;3.30;;;3.00;;
13408;SDS011;6775;49.574;11.170;2023-07-22T03:47:39;2.93;;;2.33;;
13408;SDS011;6775;49.574;11.170;2023-07-22T03:50:09;3.17;;;2.57;;
13408;SDS011;6775;49.574;11.170;2023-07-22T03:52:37;3.33;;;2.80;;
13408;SDS011;6775;49.574;11.170;2023-07-22T03:55:05;2.97;;;2.50;;
13408;SDS011;6775;49.574;11.170;2023-07-22T03:57:34;3.73;;;3.23;;
13408;SDS011;6775;49.574;11.170;2023-07-22T04:00:02;5.20;;;3.60;;
13408;SDS011;6775;49.574;11.170;2023-07-22T04:02:35;4.40;;;3.17;;
13408;SDS011;6775;49.574;11.170;2023-07-22T04:05:03;5.27;;;4.07;;
13408;SDS011;6775;49.574;11.170;2023-07-22T04:07:34;4.20;;;3.40;;
13408;SDS011;6775;49.574;11.170;2023-07-22T04:10:02;5.03;;;3.67;;
13408;SDS011;6775;49.574;11.170;2023-07-22T04:12:31;5.20;;;3.53;;
13408;SDS011;6775;49.574;11.170;2023-07-22T04:14:59;5.17;;;3.80;;
13408;SDS011;6775;49.574;11.170;2023-07-22T04:17:27;4.90;;;3.40;;
13408;SDS011;6775;49.574;11.170;2023-07-22T04:19:56;3.73;;;3.27;;
13408;SDS011;6775;49.574;11.170;2023-07-22T04:22:24;3.47;;;2.90;;
13408;SDS011;6775;49.574;11.170;2023-07-22T04:24:53;3.20;;;2.90;;
13408;SDS011;6775;49.574;11.170;2023-07-22T04:27:21;5.10;;;3.17;;
13408;SDS011;6775;49.574;11.170;2023-07-22T04:29:49;3.47;;;2.93;;
13408;SDS011;6775;49.574;11.170;2023-07-22T04:32:18;4.60;;;3.53;;
13408;SDS011;6775;49.574;11.170;2023-07-22T04:34:46;4.60;;;3.53;;
13408;SDS011;6775;49.574;11.170;2023-07-22T04:37:14;5.13;;;3.87;;
13408;SDS011;6775;49.574;11.170;2023-07-22T04:39:46;3.20;;;2.90;;
13408;SDS011;6775;49.574;11.170;2023-07-22T04:42:18;4.07;;;3.20;;
13408;SDS011;6775;49.574;11.170;2023-07-22T04:44:46;3.77;;;3.27;;
13408;SDS011;6775;49.574;11.170;2023-07-22T04:47:14;3.73;;;3.30;;
13408;SDS011;6775;49.574;11.170;2023-07-22T04:49:43;4.80;;;3.23;;
13408;SDS011;6775;49.574;11.170;2023-07-22T04:52:11;5.00;;;3.70;;
13408;SDS011;6775;49.574;11.170;2023-07-22T04:54:39;5.13;;;3.90;;
13408;SDS011;6775;49.574;11.170;2023-07-22T04:57:09;4.17;;;3.07;;
13408;SDS011;6775;49.574;11.170;2023-07-22T04:59:38;4.77;;;3.80;;
13408;SDS011;6775;49.574;11.170;2023-07-22T05:02:06;3.73;;;3.33;;
13408;SDS011;6775;49.574;11.170;2023-07-22T05:04:34;3.40;;;3.10;;
13408;SDS011;6775;49.574;11.170;2023-07-22T05:07:02;4.27;;;3.30;;
13408;SDS011;6775;49.574;11.170;2023-07-22T05:09:31;4.97;;;3.60;;
13408;SDS011;6775;49.574;11.170;2023-07-22T05:11:59;3.77;;;2.93;;
13408;SDS011;6775;49.574;11.170;2023-07-22T05:14:27;4.03;;;3.03;;
13408;SDS011;6775;49.574;11.170;2023-07-22T05:16:56;3.53;;;2.57;;
13408;SDS011;6775;49.574;11.170;2023-07-22T05:19:24;2.57;;;2.27;;
13408;SDS011;6775;49.574;11.170;2023-07-22T05:21:52;3.17;;;2.87;;
13408;SDS011;6775;49.574;11.170;2023-07-22T05:24:20;4.03;;;3.03;;
13408;SDS011;6775;49.574;11.170;2023-07-22T05:26:49;3.17;;;2.70;;
13408;SDS011;6775;49.574;11.170;2023-07-22T05:29:34;2.70;;;2.50;;
13408;SDS011;6775;49.574;11.170;2023-07-22T05:32:04;5.97;;;3.47;;
13408;SDS011;6775;49.574;11.170;2023-07-22T05:34:53;4.33;;;2.90;;
13408;SDS011;6775;49.574;11.170;2023-07-22T05:37:22;4.30;;;2.90;;
13408;SDS011;6775;49.574;11.170;2023-07-22T05:39:50;4.67;;;3.40;;
13408;SDS011;6775;49.574;11.170;2023-07-22T05:42:18;4.07;;;3.20;;
13408;SDS011;6775;49.574;11.170;2023-07-22T05:44:47;3.50;;;3.17;;
13408;SDS011;6775;49.574;11.170;2023-07-22T05:47:16;3.17;;;2.83;;
13408;SDS011;6775;49.574;11.170;2023-07-22T05:49:45;3.20;;;2.50;;
13408;SDS011;6775;49.574;11.170;2023-07-22T05:52:12;3.70;;;2.90;;
13408;SDS011;6775;49.574;11.170;2023-07-22T05:54:40;3.33;;;2.60;;
13408;SDS011;6775;49.574;11.170;2023-07-22T05:57:08;3.17;;;2.90;;
13408;SDS011;6775;49.574;11.170;2023-07-22T05:59:36;4.57;;;2.87;;
13408;SDS011;6775;49.574;11.170;2023-07-22T06:02:06;3.40;;;3.10;;
13408;SDS011;6775;49.574;11.170;2023-07-22T06:04:38;3.23;;;2.80;;
13408;SDS011;6775;49.574;11.170;2023-07-22T06:07:06;3.50;;;3.07;;
13408;SDS011;6775;49.574;11.170;2023-07-22T06:09:34;3.43;;;2.67;;
13408;SDS011;6775;49.574;11.170;2023-07-22T06:12:02;3.53;;;2.73;;
13408;SDS011;6775;49.574;11.170;2023-07-22T06:14:31;2.50;;;2.30;;
13408;SDS011;6775;49.574;11.170;2023-07-22T06:16:59;3.37;;;2.73;;
13408;SDS011;6775;49.574;11.170;2023-07-22T06:19:28;5.13;;;3.03;;
13408;SDS011;6775;49.574;11.170;2023-07-22T06:21:58;3.80;;;3.13;;
13408;SDS011;6775;49.574;11.170;2023-07-22T06:24:26;4.40;;;3.57;;
13408;SDS011;6775;49.574;11.170;2023-07-22T06:26:54;6.37;;;3.50;;
13408;SDS011;6775;49.574;11.170;2023-07-22T06:29:22;4.13;;;3.53;;
13408;SDS011;6775;49.574;11.170;2023-07-22T06:31:50;7.13;;;3.70;;
13408;SDS011;6775;49.574;11.170;2023-07-22T06:34:18;5.80;;;3.40;;
13408;SDS011;6775;49.574;11.170;2023-07-22T06:36:46;3.57;;;3.27;;
13408;SDS011;6775;49.574;11.170;2023-07-22T06:39:16;4.40;;;3.67;;
13408;SDS011;6775;49.574;11.170;2023-07-22T06:41:44;5.20;;;3.40;;
13408;SDS011;6775;49.574;11.170;2023-07-22T06:44:12;4.50;;;3.70;;
13408;SDS011;6775;49.574;11.170;2023-07-22T06:46:40;4.13;;;3.47;;
13408;SDS011;6775;49.574;11.170;2023-07-22T06:49:08;3.97;;;3.60;;
13408;SDS011;6775;49.574;11.170;2023-07-22T06:51:36;4.47;;;3.20;;
13408;SDS011;6775;49.574;11.170;2023-07-22T06:54:04;5.23;;;4.20;;
13408;SDS011;6775;49.574;11.170;2023-07-22T06:56:34;4.30;;;3.90;;
13408;SDS011;6775;49.574;11.170;2023-07-22T06:59:02;5.37;;;3.80;;
13408;SDS011;6775;49.574;11.170;2023-07-22T07:01:30;4.53;;;3.40;;
13408;SDS011;6775;49.574;11.170;2023-07-22T07:03:58;4.23;;;3.77;;
13408;SDS011;6775;49.574;11.170;2023-07-22T07:06:28;5.27;;;3.80;;
13408;SDS011;6775;49.574;11.170;2023-07-22T07:08:58;5.90;;;3.57;;
13408;SDS011;6775;49.574;11.170;2023-07-22T07:11:28;4.37;;;3.67;;
13408;SDS011;6775;49.574;11.170;2023-07-22T07:13:57;5.40;;;3.50;;
13408;SDS011;6775;49.574;11.170;2023-07-22T07:16:26;5.03;;;3.47;;
13408;SDS011;6775;49.574;11.170;2023-07-22T07:18:58;4.90;;;3.63;;
13408;SDS011;6775;49.574;11.170;2023-07-22T07:21:27;5.53;;;3.60;;
13408;SDS011;6775;49.574;11.170;2023-07-22T07:23:55;5.57;;;3.60;;
13408;SDS011;6775;49.574;11.170;2023-07-22T07:26:24;6.37;;;4.17;;
13408;SDS011;6775;49.574;11.170;2023-07-22T07:28:53;4.57;;;3.63;;
13408;SDS011;6775;49.574;11.170;2023-07-22T07:31:22;4.70;;;3.73;;
13408;SDS011;6775;49.574;11.170;2023-07-22T07:33:51;5.03;;;3.50;;
13408;SDS011;6775;49.574;11.170;2023-07-22T07:36:19;5.67;;;3.90;;
13408;SDS011;6775;49.574;11.170;2023-07-22T07:38:47;3.90;;;3.50;;
13408;SDS011;6775;49.574;11.170;2023-07-22T07:41:15;3.20;;;2.80;;
13408;SDS011;6775;49.574;11.170;2023-07-22T07:43:43;3.73;;;3.30;;
13408;SDS011;6775;49.574;11.170;2023-07-22T07:46:15;3.73;;;3.37;;
13408;SDS011;6775;49.574;11.170;2023-07-22T07:48:48;5.70;;;3.50;;
13408;SDS011;6775;49.574;11.170;2023-07-22T07:51:18;5.80;;;3.83;;
13408;SDS011;6775;49.574;11.170;2023-07-22T07:53:47;4.57;;;4.13;;
13408;SDS011;6775;49.574;11.170;2023-07-22T07:56:17;5.97;;;3.97;;
13408;SDS011;6775;49.574;11.170;2023-07-22T07:58:47;4.60;;;4.10;;
13408;SDS011;6775;49.574;11.170;2023-07-22T08:01:18;4.67;;;3.80;;
13408;SDS011;6775;49.574;11.170;2023-07-22T08:03:47;4.17;;;3.47;;
13408;SDS011;6775;49.574;11.170;2023-07-22T08:06:15;5.87;;;3.63;;
13408;SDS011;6775;49.574;11.170;2023-07-22T08:08:45;4.60;;;4.10;;
13408;SDS011;6775;49.574;11.170;2023-07-22T08:11:14;4.53;;;3.83;;
13408;SDS011;6775;49.574;11.170;2023-07-22T08:13:43;6.30;;;4.73;;
13408;SDS011;6775;49.574;11.170;2023-07-22T08:16:12;7.37;;;4.80;;
13408;SDS011;6775;49.574;11.170;2023-07-22T08:18:41;4.63;;;4.13;;
13408;SDS011;6775;49.574;11.170;2023-07-22T08:21:10;4.90;;;4.40;;
13408;SDS011;6775;49.574;11.170;2023-07-22T08:23:38;4.67;;;3.77;;
13408;SDS011;6775;49.574;11.170;2023-07-22T08:26:07;6.07;;;4.27;;
13408;SDS011;6775;49.574;11.170;2023-07-22T08:28:35;5.97;;;4.73;;
13408;SDS011;6775;49.574;11.170;2023-07-22T08:31:03;4.50;;;4.10;;
13408;SDS011;6775;49.574;11.170;2023-07-22T08:33:31;7.63;;;4.93;;
13408;SDS011;6775;49.574;11.170;2023-07-22T08:36:07;5.30;;;4.60;;
13408;SDS011;6775;49.574;11.170;2023-07-22T08:38:37;6.17;;;4.50;;
13408;SDS011;6775;49.574;11.170;2023-07-22T08:41:05;4.50;;;3.63;;
13408;SDS011;6775;49.574;11.170;2023-07-22T08:43:34;5.40;;;4.10;;
13408;SDS011;6775;49.574;11.170;2023-07-22T08:46:07;4.43;;;3.83;;
13408;SDS011;6775;49.574;11.170;2023-07-22T08:48:38;4.47;;;3.77;;
13408;SDS011;6775;49.574;11.170;2023-07-22T08:51:15;3.87;;;3.10;;
13408;SDS011;6775;49.574;11.170;2023-07-22T08:53:46;3.90;;;3.20;;
13408;SDS011;6775;49.574;11.170;2023-07-22T08:56:35;4.13;;;3.67;;
13408;SDS011;6775;49.574;11.170;2023-07-22T08:59:05;3.87;;;3.47;;
13408;SDS011;6775;49.574;11.170;2023-07-22T09:01:34;7.40;;;5.47;;
13408;SDS011;6775;49.574;11.170;2023-07-22T09:04:03;4.90;;;3.50;;
13408;SDS011;6775;49.574;11.170;2023-07-22T09:06:31;3.80;;;3.50;;
13408;SDS011;6775;49.574;11.170;2023-07-22T09:09:03;3.83;;;3.03;;
13408;SDS011;6775;49.574;11.170;2023-07-22T09:11:34;3.80;;;3.17;;
13408;SDS011;6775;49.574;11.170;2023-07-22T09:14:03;8.73;;;5.00;;
13408;SDS011;6775;49.574;11.170;2023-07-22T09:16:31;4.77;;;3.60;;
13408;SDS011;6775;49.574;11.170;2023-07-22T09:19:02;4.60;;;3.77;;
13408;SDS011;6775;49.574;11.170;2023-07-22T09:21:31;5.37;;;4.07;;
13408;SDS011;6775;49.574;11.170;2023-07-22T09:24:03;4.33;;;3.63;;
13408;SDS011;6775;49.574;11.170;2023-07-22T09:26:49;4.40;;;4.00;;
13408;SDS011;6775;49.574;11.170;2023-07-22T09:29:17;5.00;;;4.17;;
13408;SDS011;6775;49.574;11.170;2023-07-22T09:31:49;3.63;;;3.30;;
13408;SDS011;6775;49.574;11.170;2023-07-22T09:34:18;6.17;;;4.43;;
13408;SDS011;6775;49.574;11.170;2023-07-22T09:36:50;7.10;;;4.60;;
13408;SDS011;6775;49.574;11.170;2023-07-22T09:39:21;4.70;;;3.97;;
13408;SDS011;6775;49.574;11.170;2023-07-22T09:41:50;4.87;;;4.13;;
13408;SDS011;6775;49.574;11.170;2023-07-22T09:44:18;3.77;;;3.10;;
13408;SDS011;6775;49.574;11.170;2023-07-22T09:46:47;4.60;;;4.10;;
13408;SDS011;6775;49.574;11.170;2023-07-22T09:49:16;4.47;;;3.97;;
13408;SDS011;6775;49.574;11.170;2023-07-22T09:51:45;3.97;;;3.57;;
13408;SDS011;6775;49.574;11.170;2023-07-22T09:54:29;4.10;;;3.13;;
13408;SDS011;6775;49.574;11.170;2023-07-22T09:56:58;3.43;;;3.13;;
13408;SDS011;6775;49.574;11.170;2023-07-22T09:59:27;4.87;;;3.90;;
13408;SDS011;6775;49.574;11.170;2023-07-22T10:01:58;7.10;;;4.30;;
13408;SDS011;6775;49.574;11.170;2023-07-22T10:04:31;4.70;;;3.70;;
13408;SDS011;6775;49.574;11.170;2023-07-22T10:07:03;3.30;;;3.00;;
13408;SDS011;6775;49.574;11.170;2023-07-22T10:09:35;4.20;;;3.40;;
13408;SDS011;6775;49.574;11.170;2023-07-22T10:12:06;4.50;;;3.93;;
13408;SDS011;6775;49.574;11.170;2023-07-22T10:14:35;4.53;;;3.13;;
13408;SDS011;6775;49.574;11.170;2023-07-22T10:17:04;4.93;;;2.80;;
13408;SDS011;6775;49.574;11.170;2023-07-22T10:19:35;3.90;;;2.73;;
13408;SDS011;6775;49.574;11.170;2023-07-22T10:22:04;3.23;;;2.90;;
13408;SDS011;6775;49.574;11.170;2023-07-22T10:24:37;3.30;;;3.00;;
13408;SDS011;6775;49.574;11.170;2023-07-22T10:27:08;3.40;;;2.60;;
13408;SDS011;6775;49.574;11.170;2023-07-22T10:29:38;3.87;;;3.20;;
13408;SDS011;6775;49.574;11.170;2023-07-22T10:32:07;3.37;;;3.03;;
13408;SDS011;6775;49.574;11.170;2023-07-22T10:34:35;3.57;;;3.23;;
13408;SDS011;6775;49.574;11.170;2023-07-22T10:37:03;4.50;;;3.43;;
13408;SDS011;6775;49.574;11.170;2023-07-22T10:39:31;3.47;;;3.17;;
13408;SDS011;6775;49.574;11.170;2023-07-22T10:42:01;4.20;;;3.37;;
13408;SDS011;6775;49.574;11.170;2023-07-22T10:44:31;3.93;;;2.90;;
13408;SDS011;6775;49.574;11.170;2023-07-22T10:47:00;3.17;;;2.87;;
13408;SDS011;6775;49.574;11.170;2023-07-22T10:49:42;3.43;;;3.13;;
13408;SDS011;6775;49.574;11.170;2023-07-22T10:52:13;3.10;;;2.80;;
13408;SDS011;6775;49.574;11.170;2023-07-22T10:54:41;3.70;;;2.60;;
13408;SDS011;6775;49.574;11.170;2023-07-22T10:57:23;3.03;;;2.73;;
13408;SDS011;6775;49.574;11.170;2023-07-22T10:59:52;3.60;;;3.20;;
13408;SDS011;6775;49.574;11.170;2023-07-22T11:02:24;3.23;;;2.87;;
13408;SDS011;6775;49.574;11.170;2023-07-22T11:04:56;2.73;;;2.40;;
13408;SDS011;6775;49.574;11.170;2023-07-22T11:07:32;2.97;;;2.60;;
13408;SDS011;6775;49.574;11.170;2023-07-22T11:10:14;3.90;;;3.03;;
13408;SDS011;6775;49.574;11.170;2023-07-22T11:12:46;2.40;;;2.20;;
13408;SDS011;6775;49.574;11.170;2023-07-22T11:15:16;3.23;;;2.30;;
13408;SDS011;6775;49.574;11.170;2023-07-22T11:17:44;2.37;;;1.90;;
13408;SDS011;6775;49.574;11.170;2023-07-22T11:20:13;2.53;;;2.10;;
13408;SDS011;6775;49.574;11.170;2023-07-22T11:22:41;2.70;;;2.50;;
13408;SDS011;6775;49.574;11.170;2023-07-22T11:25:16;2.40;;;2.10;;
13408;SDS011;6775;49.574;11.170;2023-07-22T11:27:44;2.53;;;2.07;;
13408;SDS011;6775;49.574;11.170;2023-07-22T11:30:14;2.17;;;1.97;;
13408;SDS011;6775;49.574;11.170;2023-07-22T11:32:43;2.07;;;1.87;;
13408;SDS011;6775;49.574;11.170;2023-07-22T11:35:12;2.43;;;2.23;;
13408;SDS011;6775;49.574;11.170;2023-07-22T11:37:44;2.00;;;1.90;;
13408;SDS011;6775;49.574;11.170;2023-07-22T11:40:12;2.23;;;2.07;;
13408;SDS011;6775;49.574;11.170;2023-07-22T11:42:40;1.90;;;1.70;;
13408;SDS011;6775;49.574;11.170;2023-07-22T11:45:10;1.70;;;1.60;;
13408;SDS011;6775;49.574;11.170;2023-07-22T11:47:38;1.90;;;1.80;;
13408;SDS011;6775;49.574;11.170;2023-07-22T11:50:06;2.20;;;2.00;;
13408;SDS011;6775;49.574;11.170;2023-07-22T11:52:36;2.70;;;2.50;;
13408;SDS011;6775;49.574;11.170;2023-07-22T11:55:05;2.30;;;2.10;;
13408;SDS011;6775;49.574;11.170;2023-07-22T11:57:35;2.17;;;1.97;;
13408;SDS011;6775;49.574;11.170;2023-07-22T12:00:03;3.83;;;2.27;;
13408;SDS011;6775;49.574;11.170;2023-07-22T12:02:38;2.73;;;2.30;;
13408;SDS011;6775;49.574;11.170;2023-07-22T12:05:09;2.83;;;2.50;;
13408;SDS011;6775;49.574;11.170;2023-07-22T12:07:37;3.00;;;2.27;;
13408;SDS011;6775;49.574;11.170;2023-07-22T12:10:07;2.10;;;1.90;;
13408;SDS011;6775;49.574;11.170;2023-07-22T12:12:39;2.50;;;2.30;;
13408;SDS011;6775;49.574;11.170;2023-07-22T12:15:10;3.13;;;2.07;;
13408;SDS011;6775;49.574;11.170;2023-07-22T12:17:45;3.77;;;2.10;;
13408;SDS011;6775;49.574;11.170;2023-07-22T12:20:14;2.20;;;2.00;;
13408;SDS011;6775;49.574;11.170;2023-07-22T12:22:43;2.27;;;1.90;;
13408;SDS011;6775;49.574;11.170;2023-07-22T12:25:11;1.83;;;1.73;;
13408;SDS011;6775;49.574;11.170;2023-07-22T12:27:39;2.10;;;1.90;;
13408;SDS011;6775;49.574;11.170;2023-07-22T12:30:08;2.30;;;1.90;;
13408;SDS011;6775;49.574;11.170;2023-07-22T12:32:38;2.27;;;2.00;;
13408;SDS011;6775;49.574;11.170;2023-07-22T12:35:06;2.10;;;1.90;;
13408;SDS011;6775;49.574;11.170;2023-07-22T12:37:35;2.13;;;1.93;;
13408;SDS011;6775;49.574;11.170;2023-07-22T12:40:04;4.20;;;2.40;;
13408;SDS011;6775;49.574;11.170;2023-07-22T12:42:35;2.67;;;2.10;;
13408;SDS011;6775;49.574;11.170;2023-07-22T12:45:04;3.50;;;2.10;;
13408;SDS011;6775;49.574;11.170;2023-07-22T12:47:35;1.93;;;1.83;;
13408;SDS011;6775;49.574;11.170;2023-07-22T12:50:04;2.67;;;2.40;;
13408;SDS011;6775;49.574;11.170;2023-07-22T12:52:34;2.73;;;2.07;;
13408;SDS011;6775;49.574;11.170;2023-07-22T12:55:03;2.67;;;1.90;;
13408;SDS011;6775;49.574;11.170;2023-07-22T12:57:31;2.53;;;2.33;;
13408;SDS011;6775;49.574;11.170;2023-07-22T12:59:59;2.90;;;1.97;;
13408;SDS011;6775;49.574;11.170;2023-07-22T13:02:28;1.87;;;1.70;;
13408;SDS011;6775;49.574;11.170;2023-07-22T13:04:57;1.87;;;1.60;;
13408;SDS011;6775;49.574;11.170;2023-07-22T13:07:25;1.90;;;1.80;;
13408;SDS011;6775;49.574;11.170;2023-07-22T13:09:55;1.60;;;1.50;;
13408;SDS011;6775;49.574;11.170;2023-07-22T13:12:28;1.63;;;1.53;;
13408;SDS011;6775;49.574;11.170;2023-07-22T13:14:56;1.50;;;1.40;;
13408;SDS011;6775;49.574;11.170;2023-07-22T13:17:24;2.80;;;2.00;;
13408;SDS011;6775;49.574;11.170;2023-07-22T13:19:52;1.90;;;1.77;;
13408;SDS011;6775;49.574;11.170;2023-07-22T13:22:21;1.80;;;1.70;;
13408;SDS011;6775;49.574;11.170;2023-07-22T13:24:50;2.37;;;2.00;;
13408;SDS011;6775;49.574;11.170;2023-07-22T13:27:18;1.80;;;1.70;;
13408;SDS011;6775;49.574;11.170;2023-07-22T13:29:46;2.60;;;1.90;;
13408;SDS011;6775;49.574;11.170;2023-07-22T13:32:14;1.57;;;1.47;;
13408;SDS011;6775;49.574;11.170;2023-07-22T13:34:42;2.03;;;1.77;;
13408;SDS011;6775;49.574;11.170;2023-07-22T13:37:10;2.17;;;1.97;;
13408;SDS011;6775;49.574;11.170;2023-07-22T13:39:39;1.80;;;1.60;;
13408;SDS011;6775;49.574;11.170;2023-07-22T13:42:07;1.73;;;1.63;;
13408;SDS011;6775;49.574;11.170;2023-07-22T13:44:36;2.20;;;1.60;;
13408;SDS011;6775;49.574;11.170;2023-07-22T13:47:05;1.90;;;1.73;;
13408;SDS011;6775;49.574;11.170;2023-07-22T13:49:34;2.10;;;1.90;;
13408;SDS011;6775;49.574;11.170;2023-07-22T13:52:02;1.90;;;1.60;;
13408;SDS011;6775;49.574;11.170;2023-07-22T13:54:30;3.13;;;1.70;;
13408;SDS011;6775;49.574;11.170;2023-07-22T13:56:59;3.13;;;1.83;;
13408;SDS011;6775;49.574;11.170;2023-07-22T13:59:27;1.87;;;1.77;;
13408;SDS011;6775;49.574;11.170;2023-07-22T14:01:55;2.20;;;2.00;;
13408;SDS011;6775;49.574;11.170;2023-07-22T14:04:23;1.73;;;1.60;;
13408;SDS011;6775;49.574;11.170;2023-07-22T14:06:51;1.97;;;1.67;;
13408;SDS011;6775;49.574;11.170;2023-07-22T14:09:19;2.43;;;1.60;;
13408;SDS011;6775;49.574;11.170;2023-07-22T14:11:47;2.17;;;1.60;;
13408;SDS011;6775;49.574;11.170;2023-07-22T14:14:17;2.73;;;1.70;;
13408;SDS011;6775;49.574;11.170;2023-07-22T14:16:45;2.03;;;1.80;;
13408;SDS011;6775;49.574;11.170;2023-07-22T14:19:13;1.70;;;1.60;;
13408;SDS011;6775;49.574;11.170;2023-07-22T14:21:41;3.73;;;1.90;;
13408;SDS011;6775;49.574;11.170;2023-07-22T14:24:09;1.70;;;1.57;;
13408;SDS011;6775;49.574;11.170;2023-07-22T14:26:37;1.90;;;1.70;;
13408;SDS011;6775;49.574;11.170;2023-07-22T14:29:05;3.00;;;2.00;;
13408;SDS011;6775;49.574;11.170;2023-07-22T14:31:34;2.57;;;1.77;;
13408;SDS011;6775;49.574;11.170;2023-07-22T14:34:02;1.93;;;1.73;;
13408;SDS011;6775;49.574;11.170;2023-07-22T14:36:30;1.97;;;1.77;;
13408;SDS011;6775;49.574;11.170;2023-07-22T14:38:58;2.63;;;1.80;;
13408;SDS011;6775;49.574;11.170;2023-07-22T14:41:26;2.80;;;1.53;;
13408;SDS011;6775;49.574;11.170;2023-07-22T14:43:55;2.53;;;1.80;;
13408;SDS011;6775;49.574;11.170;2023-07-22T14:46:23;1.50;;;1.40;;
13408;SDS011;6775;49.574;11.170;2023-07-22T14:48:52;1.93;;;1.50;;
13408;SDS011;6775;49.574;11.170;2023-07-22T14:51:20;3.80;;;1.80;;
13408;SDS011;6775;49.574;11.170;2023-07-22T14:53:48;1.47;;;1.37;;
13408;SDS011;6775;49.574;11.170;2023-07-22T14:56:17;1.50;;;1.40;;
13408;SDS011;6775;49.574;11.170;2023-07-22T14:58:45;1.33;;;1.23;;
13408;SDS011;6775;49.574;11.170;2023-07-22T15:01:15;2.53;;;1.70;;